createdAt,value
2018-02-16T00:00:07.235Z,6.99
2018-02-16T00:01:07.248Z,6.93
2018-02-16T00:02:07.279Z,6.84
2018-02-16T00:03:07.282Z,6.95
2018-02-16T00:04:07.297Z,6.84
2018-02-16T00:05:07.302Z,6.89
2018-02-16T00:06:07.066Z,6.93
2018-02-16T00:07:07.342Z,6.84
2018-02-16T00:08:07.355Z,6.85
2018-02-16T00:09:07.630Z,6.95
2018-02-16T00:10:07.640Z,6.85
2018-02-16T00:11:07.405Z,6.88
2018-02-16T00:12:07.165Z,6.88
2018-02-16T00:13:07.435Z,6.88
2018-02-16T00:14:07.702Z,6.99
2018-02-16T00:15:07.469Z,6.87
2018-02-16T00:16:07.235Z,6.93
2018-02-16T00:17:07.263Z,6.93
2018-02-16T00:18:07.520Z,6.99
2018-02-16T00:19:07.525Z,7.07
2018-02-16T00:20:07.796Z,6.99
2018-02-16T00:21:07.814Z,6.96
2018-02-16T00:22:07.824Z,6.96
2018-02-16T00:23:07.583Z,7.03
2018-02-16T00:24:07.627Z,7.05
2018-02-16T00:25:07.375Z,7.03
2018-02-16T00:26:07.378Z,6.99
2018-02-16T00:27:07.900Z,6.97
2018-02-16T00:28:07.922Z,7.11
2018-02-16T00:29:07.683Z,7.05
2018-02-16T00:30:07.697Z,7.05
2018-02-16T00:31:07.457Z,7.02
2018-02-16T00:32:07.980Z,7
2018-02-16T00:33:07.997Z,6.88
2018-02-16T00:34:07.770Z,6.96
2018-02-16T00:35:07.774Z,6.97
2018-02-16T00:36:08.052Z,6.88
2018-02-16T00:37:07.557Z,6.87
2018-02-16T00:38:07.826Z,6.92
2018-02-16T00:39:07.839Z,6.93
2018-02-16T00:40:07.602Z,6.84
2018-02-16T00:41:07.866Z,6.89
2018-02-16T00:42:07.907Z,6.89
2018-02-16T00:43:08.161Z,6.95
2018-02-16T00:44:08.172Z,6.95
2018-02-16T00:45:07.681Z,6.93
2018-02-16T00:46:08.197Z,6.93
2018-02-16T00:47:07.728Z,6.96
2018-02-16T00:48:07.723Z,6.89
2018-02-16T00:49:08.249Z,6.95
2018-02-16T00:50:08.010Z,6.96
2018-02-16T00:51:07.779Z,7.05
2018-02-16T00:52:08.289Z,6.93
2018-02-16T00:53:08.054Z,6.93
2018-02-16T00:54:08.066Z,6.99
2018-02-16T00:55:07.831Z,6.93
2018-02-16T00:56:08.100Z,6.95
2018-02-16T00:57:08.113Z,6.97
2018-02-16T00:58:08.126Z,6.95
2018-02-16T00:59:08.398Z,6.95
2018-02-16T01:00:08.171Z,6.99
2018-02-16T01:01:08.173Z,6.99
2018-02-16T01:02:08.195Z,7.02
2018-02-16T01:03:07.951Z,6.96
2018-02-16T01:04:07.966Z,6.88
2018-02-16T01:05:08.238Z,6.84
2018-02-16T01:06:08.000Z,6.85
2018-02-16T01:07:08.268Z,6.88
2018-02-16T01:08:08.032Z,6.99
2018-02-16T01:09:08.039Z,6.93
2018-02-16T01:10:08.565Z,6.95
2018-02-16T01:11:08.324Z,7.02
2018-02-16T01:12:08.596Z,6.97
2018-02-16T01:13:08.604Z,6.97
2018-02-16T01:14:08.117Z,7.1
2018-02-16T01:15:08.142Z,6.92
2018-02-16T01:16:08.401Z,6.95
2018-02-16T01:17:08.678Z,6.93
2018-02-16T01:18:08.452Z,6.96
2018-02-16T01:19:08.713Z,6.92
2018-02-16T01:20:08.721Z,7.02
2018-02-16T01:21:08.739Z,6.89
2018-02-16T01:22:08.523Z,6.92
2018-02-16T01:23:08.520Z,6.92
2018-02-16T01:24:08.535Z,6.92
2018-02-16T01:25:08.565Z,6.97
2018-02-16T01:26:08.564Z,6.89
2018-02-16T01:27:08.581Z,6.95
2018-02-16T01:28:08.595Z,6.92
2018-02-16T01:29:08.617Z,6.96
2018-02-16T01:30:08.630Z,6.96
2018-02-16T01:31:08.644Z,6.96
2018-02-16T01:32:08.914Z,7.02
2018-02-16T01:33:08.679Z,7.02
2018-02-16T01:34:08.690Z,6.95
2018-02-16T01:35:08.984Z,6.97
2018-02-16T01:36:08.973Z,6.99
2018-02-16T01:37:08.498Z,7.05
2018-02-16T01:38:09.008Z,7.07
2018-02-16T01:39:08.795Z,7.15
2018-02-16T01:40:08.803Z,7.11
2018-02-16T01:41:08.800Z,7.13
2018-02-16T01:42:08.561Z,7.06
2018-02-16T01:43:08.580Z,7.07
2018-02-16T01:44:08.845Z,7.11
2018-02-16T01:45:09.114Z,7
2018-02-16T01:46:08.879Z,6.96
2018-02-16T01:47:09.170Z,6.97
2018-02-16T01:48:08.910Z,6.95
2018-02-16T01:49:09.193Z,6.97
2018-02-16T01:50:09.202Z,7.07
2018-02-16T01:51:09.210Z,7.06
2018-02-16T01:52:08.756Z,7.13
2018-02-16T01:53:08.988Z,7.1
2018-02-16T01:54:09.011Z,7
2018-02-16T01:55:09.030Z,7.11
2018-02-16T01:56:09.038Z,7
2018-02-16T01:57:09.312Z,7.06
2018-02-16T01:58:09.103Z,6.97
2018-02-16T01:59:08.849Z,6.93
2018-02-16T02:00:09.367Z,6.93
2018-02-16T02:01:09.124Z,6.81
2018-02-16T02:02:09.391Z,6.66
2018-02-16T02:03:09.148Z,6.56
2018-02-16T02:04:08.912Z,6.67
2018-02-16T02:05:09.432Z,6.72
2018-02-16T02:06:09.445Z,6.54
2018-02-16T02:07:09.467Z,6.45
2018-02-16T02:08:08.971Z,6.41
2018-02-16T02:09:09.240Z,6.46
2018-02-16T02:10:09.004Z,6.52
2018-02-16T02:11:09.268Z,6.42
2018-02-16T02:12:09.294Z,6.44
2018-02-16T02:13:09.305Z,6.19
2018-02-16T02:14:09.316Z,6.08
2018-02-16T02:15:09.371Z,6.12
2018-02-16T02:16:09.088Z,6.05
2018-02-16T02:17:09.602Z,6.17
2018-02-16T02:18:09.120Z,6.19
2018-02-16T02:19:09.387Z,6.41
2018-02-16T02:20:09.405Z,6.39
2018-02-16T02:21:09.423Z,6.54
2018-02-16T02:22:09.437Z,6.35
2018-02-16T02:23:09.712Z,6.19
2018-02-16T02:24:09.460Z,6.27
2018-02-16T02:25:09.476Z,6.2
2018-02-16T02:26:09.755Z,6.28
2018-02-16T02:27:09.758Z,6.22
2018-02-16T02:28:09.521Z,6.08
2018-02-16T02:29:09.298Z,5.9
2018-02-16T02:30:09.295Z,5.9
2018-02-16T02:31:09.574Z,5.99
2018-02-16T02:32:09.838Z,5.97
2018-02-16T02:33:09.603Z,6.07
2018-02-16T02:34:09.359Z,5.99
2018-02-16T02:35:09.899Z,6.04
2018-02-16T02:36:09.646Z,6.05
2018-02-16T02:37:09.659Z,5.97
2018-02-16T02:38:09.686Z,6.07
2018-02-16T02:39:09.940Z,6.11
2018-02-16T02:40:09.957Z,6.19
2018-02-16T02:41:09.723Z,6.04
2018-02-16T02:42:09.728Z,5.97
2018-02-16T02:43:09.758Z,5.97
2018-02-16T02:44:09.756Z,5.97
2018-02-16T02:45:09.780Z,5.93
2018-02-16T02:46:09.801Z,6.01
2018-02-16T02:47:09.797Z,6.02
2018-02-16T02:48:09.557Z,6.07
2018-02-16T02:49:09.823Z,5.99
2018-02-16T02:50:09.836Z,6.02
2018-02-16T02:51:09.872Z,6.01
2018-02-16T02:52:10.071Z,6.02
2018-02-16T02:53:09.882Z,5.87
2018-02-16T02:54:09.895Z,6.01
2018-02-16T02:55:10.190Z,6.01
2018-02-16T02:56:09.934Z,6.12
2018-02-16T02:57:10.223Z,6.11
2018-02-16T02:58:09.706Z,6.05
2018-02-16T02:59:10.233Z,5.93
2018-02-16T03:00:10.007Z,5.9
2018-02-16T03:01:10.266Z,6.01
2018-02-16T03:02:10.019Z,6.08
2018-02-16T03:03:10.038Z,6.02
2018-02-16T03:04:10.075Z,5.8
2018-02-16T03:05:10.064Z,5.9
2018-02-16T03:06:10.073Z,5.83
2018-02-16T03:07:10.098Z,5.89
2018-02-16T03:08:10.361Z,5.84
2018-02-16T03:09:10.120Z,5.76
2018-02-16T03:10:10.133Z,5.84
2018-02-16T03:11:10.146Z,5.66
2018-02-16T03:12:09.923Z,5.8
2018-02-16T03:13:10.173Z,5.87
2018-02-16T03:14:10.188Z,5.87
2018-02-16T03:15:10.460Z,5.76
2018-02-16T03:16:10.217Z,5.8
2018-02-16T03:17:10.229Z,5.89
2018-02-16T03:18:10.250Z,5.97
2018-02-16T03:19:10.291Z,5.87
2018-02-16T03:20:10.039Z,5.9
2018-02-16T03:21:10.295Z,5.84
2018-02-16T03:22:10.307Z,5.93
2018-02-16T03:23:10.069Z,5.89
2018-02-16T03:24:10.337Z,5.71
2018-02-16T03:25:10.601Z,5.75
2018-02-16T03:26:10.626Z,5.56
2018-02-16T03:27:10.384Z,5.46
2018-02-16T03:28:10.393Z,5.35
2018-02-16T03:29:10.411Z,5.33
2018-02-16T03:30:10.684Z,5.32
2018-02-16T03:31:10.445Z,5.36
2018-02-16T03:32:10.449Z,5.41
2018-02-16T03:33:10.735Z,5.38
2018-02-16T03:34:10.219Z,5.43
2018-02-16T03:35:10.486Z,5.41
2018-02-16T03:36:10.507Z,5.35
2018-02-16T03:37:10.516Z,5.46
2018-02-16T03:38:10.536Z,5.53
2018-02-16T03:39:10.550Z,5.51
2018-02-16T03:40:10.564Z,5.43
2018-02-16T03:41:10.600Z,5.35
2018-02-16T03:42:10.346Z,5.3
2018-02-16T03:43:10.610Z,5.28
2018-02-16T03:44:10.637Z,5.35
2018-02-16T03:45:10.632Z,5.28
2018-02-16T03:46:10.902Z,5.36
2018-02-16T03:47:10.658Z,5.2
2018-02-16T03:48:10.680Z,5.32
2018-02-16T03:49:10.685Z,5.33
2018-02-16T03:50:10.716Z,5.21
2018-02-16T03:51:10.733Z,5.33
2018-02-16T03:52:10.990Z,5.43
2018-02-16T03:53:10.492Z,5.35
2018-02-16T03:54:10.503Z,5.36
2018-02-16T03:55:11.025Z,5.39
2018-02-16T03:56:10.788Z,5.39
2018-02-16T03:57:10.803Z,5.44
2018-02-16T03:58:10.832Z,5.41
2018-02-16T03:59:10.829Z,5.47
2018-02-16T04:00:10.846Z,5.48
2018-02-16T04:01:10.859Z,5.46
2018-02-16T04:02:10.615Z,5.47
2018-02-16T04:03:10.890Z,5.44
2018-02-16T04:04:10.901Z,5.41
2018-02-16T04:05:11.374Z,5.36
2018-02-16T04:06:11.173Z,5.54
2018-02-16T04:07:11.201Z,5.54
2018-02-16T04:08:11.208Z,5.53
2018-02-16T04:09:10.717Z,5.59
2018-02-16T04:10:10.982Z,5.57
2018-02-16T04:11:11.249Z,5.57
2018-02-16T04:12:11.266Z,5.65
2018-02-16T04:13:11.026Z,5.47
2018-02-16T04:14:11.036Z,5.48
2018-02-16T04:15:11.303Z,5.53
2018-02-16T04:16:11.066Z,5.56
2018-02-16T04:17:11.121Z,5.54
2018-02-16T04:18:11.096Z,5.69
2018-02-16T04:19:11.109Z,5.62
2018-02-16T04:20:11.123Z,5.64
2018-02-16T04:21:11.391Z,5.64
2018-02-16T04:22:11.153Z,5.64
2018-02-16T04:23:11.422Z,5.48
2018-02-16T04:24:10.945Z,5.48
2018-02-16T04:25:11.452Z,5.47
2018-02-16T04:26:11.462Z,5.65
2018-02-16T04:27:11.247Z,5.65
2018-02-16T04:28:11.237Z,5.64
2018-02-16T04:29:11.509Z,5.66
2018-02-16T04:30:11.264Z,5.75
2018-02-16T04:31:11.276Z,5.73
2018-02-16T04:32:11.553Z,5.62
2018-02-16T04:33:11.559Z,5.69
2018-02-16T04:34:11.324Z,5.8
2018-02-16T04:35:11.086Z,5.89
2018-02-16T04:36:11.351Z,5.83
2018-02-16T04:37:11.365Z,5.71
2018-02-16T04:38:11.388Z,5.65
2018-02-16T04:39:11.392Z,5.68
2018-02-16T04:40:11.660Z,5.79
2018-02-16T04:41:11.684Z,5.75
2018-02-16T04:42:11.438Z,5.91
2018-02-16T04:43:11.452Z,5.9
2018-02-16T04:44:11.465Z,5.94
2018-02-16T04:45:11.730Z,5.89
2018-02-16T04:46:11.245Z,6.02
2018-02-16T04:47:11.256Z,6.05
2018-02-16T04:48:11.527Z,6.07
2018-02-16T04:49:11.539Z,6.24
2018-02-16T04:50:11.299Z,6.22
2018-02-16T04:51:11.844Z,6.3
2018-02-16T04:52:11.585Z,6.28
2018-02-16T04:53:11.615Z,6.2
2018-02-16T04:54:11.864Z,6.17
2018-02-16T04:55:11.885Z,6.09
2018-02-16T04:56:11.903Z,6.17
2018-02-16T04:57:11.659Z,6.05
2018-02-16T04:58:11.927Z,6.14
2018-02-16T04:59:11.943Z,6.09
2018-02-16T05:00:11.700Z,5.91
2018-02-16T05:01:11.716Z,5.86
2018-02-16T05:02:11.987Z,5.89
2018-02-16T05:03:11.744Z,6.02
2018-02-16T05:04:11.759Z,5.84
2018-02-16T05:05:12.038Z,5.9
2018-02-16T05:06:11.783Z,5.89
2018-02-16T05:07:11.814Z,5.79
2018-02-16T05:08:11.814Z,5.71
2018-02-16T05:09:11.586Z,5.68
2018-02-16T05:10:11.845Z,5.76
2018-02-16T05:11:12.111Z,5.87
2018-02-16T05:12:12.131Z,5.82
2018-02-16T05:13:11.636Z,5.64
2018-02-16T05:14:12.154Z,5.66
2018-02-16T05:15:11.921Z,5.69
2018-02-16T05:16:11.935Z,5.61
2018-02-16T05:17:11.949Z,5.61
2018-02-16T05:18:11.958Z,5.64
2018-02-16T05:19:11.975Z,5.51
2018-02-16T05:20:12.262Z,5.48
2018-02-16T05:21:12.002Z,5.48
2018-02-16T05:22:12.037Z,5.66
2018-02-16T05:23:11.778Z,5.51
2018-02-16T05:24:12.046Z,5.66
2018-02-16T05:25:12.320Z,5.64
2018-02-16T05:26:12.075Z,5.62
2018-02-16T05:27:12.089Z,5.61
2018-02-16T05:28:12.103Z,5.47
2018-02-16T05:29:12.373Z,5.44
2018-02-16T05:30:12.149Z,5.44
2018-02-16T05:31:12.145Z,5.44
2018-02-16T05:32:12.160Z,5.44
2018-02-16T05:33:12.176Z,5.41
2018-02-16T05:34:12.201Z,5.54
2018-02-16T05:35:12.203Z,5.47
2018-02-16T05:36:12.225Z,5.59
2018-02-16T05:37:11.978Z,5.51
2018-02-16T05:38:12.497Z,5.44
2018-02-16T05:39:12.261Z,5.39
2018-02-16T05:40:12.520Z,5.57
2018-02-16T05:41:12.541Z,5.54
2018-02-16T05:42:12.572Z,5.54
2018-02-16T05:43:12.313Z,5.5
2018-02-16T05:44:12.083Z,5.61
2018-02-16T05:45:12.348Z,5.48
2018-02-16T05:46:12.355Z,5.61
2018-02-16T05:47:12.119Z,5.65
2018-02-16T05:48:12.135Z,5.68
2018-02-16T05:49:12.402Z,5.71
2018-02-16T05:50:12.418Z,5.47
2018-02-16T05:51:12.450Z,5.61
2018-02-16T05:52:12.442Z,5.65
2018-02-16T05:53:12.706Z,5.66
2018-02-16T05:54:12.466Z,5.75
2018-02-16T05:55:12.486Z,5.83
2018-02-16T05:56:12.497Z,5.86
2018-02-16T05:57:12.757Z,5.87
2018-02-16T05:58:12.520Z,5.82
2018-02-16T05:59:12.283Z,5.87
2018-02-16T06:00:12.546Z,5.89
2018-02-16T06:01:12.816Z,5.9
2018-02-16T06:02:12.833Z,5.89
2018-02-16T06:03:12.592Z,5.84
2018-02-16T06:04:12.608Z,5.9
2018-02-16T06:05:12.886Z,5.91
2018-02-16T06:06:12.398Z,5.86
2018-02-16T06:07:12.900Z,5.76
2018-02-16T06:08:12.678Z,5.71
2018-02-16T06:09:12.676Z,5.69
2018-02-16T06:10:12.441Z,5.72
2018-02-16T06:11:12.966Z,5.72
2018-02-16T06:12:12.725Z,5.82
2018-02-16T06:13:12.990Z,5.62
2018-02-16T06:14:13.004Z,5.64
2018-02-16T06:15:12.769Z,5.64
2018-02-16T06:16:12.794Z,5.75
2018-02-16T06:17:12.795Z,5.69
2018-02-16T06:18:13.262Z,5.71
2018-02-16T06:19:12.829Z,5.75
2018-02-16T06:20:12.840Z,5.84
2018-02-16T06:21:12.860Z,5.75
2018-02-16T06:22:13.128Z,5.94
2018-02-16T06:23:12.893Z,5.89
2018-02-16T06:24:12.645Z,5.93
2018-02-16T06:25:12.917Z,5.86
2018-02-16T06:26:12.928Z,5.94
2018-02-16T06:27:12.948Z,6.02
2018-02-16T06:28:12.702Z,5.9
2018-02-16T06:29:12.968Z,5.99
2018-02-16T06:30:12.731Z,6.01
2018-02-16T06:31:12.998Z,6.04
2018-02-16T06:32:13.015Z,6.12
2018-02-16T06:33:13.279Z,6.24
2018-02-16T06:34:13.061Z,6.3
2018-02-16T06:35:13.061Z,6.39
2018-02-16T06:36:13.070Z,6.36
2018-02-16T06:37:13.353Z,6.14
2018-02-16T06:38:13.354Z,6.2
2018-02-16T06:39:13.379Z,6.2
2018-02-16T06:40:13.134Z,6.36
2018-02-16T06:41:13.152Z,6.36
2018-02-16T06:42:12.919Z,6.44
2018-02-16T06:43:13.178Z,6.31
2018-02-16T06:44:13.198Z,6.28
2018-02-16T06:45:13.463Z,6.31
2018-02-16T06:46:13.219Z,6.42
2018-02-16T06:47:13.237Z,6.33
2018-02-16T06:48:13.249Z,6.26
2018-02-16T06:49:13.539Z,6.38
2018-02-16T06:50:13.283Z,6.36
2018-02-16T06:51:13.593Z,6.24
2018-02-16T06:52:13.563Z,6.19
2018-02-16T06:53:13.576Z,6.16
2018-02-16T06:54:13.600Z,6.26
2018-02-16T06:55:13.353Z,6.22
2018-02-16T06:56:13.620Z,6.14
2018-02-16T06:57:13.704Z,6.22
2018-02-16T06:58:13.395Z,6.2
2018-02-16T06:59:13.419Z,6.11
2018-02-16T07:00:13.428Z,6.02
2018-02-16T07:01:13.708Z,5.97
2018-02-16T07:02:13.705Z,6.08
2018-02-16T07:03:13.731Z,6.07
2018-02-16T07:04:13.482Z,6.05
2018-02-16T07:05:13.752Z,6.08
2018-02-16T07:06:13.512Z,6.16
2018-02-16T07:07:13.533Z,6.05
2018-02-16T07:08:13.292Z,6.02
2018-02-16T07:09:13.812Z,6.02
2018-02-16T07:10:13.571Z,5.99
2018-02-16T07:11:13.339Z,6.08
2018-02-16T07:12:13.600Z,6.09
2018-02-16T07:13:13.643Z,6.14
2018-02-16T07:14:13.634Z,6.04
2018-02-16T07:15:13.647Z,6.3
2018-02-16T07:16:13.403Z,6.28
2018-02-16T07:17:13.427Z,6.09
2018-02-16T07:18:13.447Z,5.86
2018-02-16T07:19:13.695Z,5.86
2018-02-16T07:20:13.722Z,5.98
2018-02-16T07:21:13.478Z,5.99
2018-02-16T07:22:13.744Z,5.83
2018-02-16T07:23:13.503Z,5.87
2018-02-16T07:24:13.779Z,6.01
2018-02-16T07:25:13.786Z,6.02
2018-02-16T07:26:14.065Z,6.09
2018-02-16T07:27:13.816Z,6.07
2018-02-16T07:28:14.087Z,6.04
2018-02-16T07:29:13.593Z,6.01
2018-02-16T07:30:13.864Z,6.12
2018-02-16T07:31:14.135Z,6.12
2018-02-16T07:32:14.150Z,6.26
2018-02-16T07:33:13.907Z,6.22
2018-02-16T07:34:13.917Z,6.36
2018-02-16T07:35:13.933Z,6.38
2018-02-16T07:36:13.942Z,6.41
2018-02-16T07:37:13.964Z,6.35
2018-02-16T07:38:14.232Z,6.46
2018-02-16T07:39:13.993Z,6.45
2018-02-16T07:40:14.017Z,6.51
2018-02-16T07:41:14.018Z,6.49
2018-02-16T07:42:14.042Z,6.56
2018-02-16T07:43:14.054Z,6.57
2018-02-16T07:44:14.068Z,6.66
2018-02-16T07:45:13.829Z,6.67
2018-02-16T07:46:14.348Z,6.78
2018-02-16T07:47:14.381Z,6.75
2018-02-16T07:48:14.126Z,6.77
2018-02-16T07:49:14.403Z,6.75
2018-02-16T07:50:14.174Z,6.67
2018-02-16T07:51:14.424Z,6.72
2018-02-16T07:52:14.441Z,6.7
2018-02-16T07:53:13.946Z,6.81
2018-02-16T07:54:14.217Z,6.74
2018-02-16T07:55:14.481Z,6.78
2018-02-16T07:56:14.496Z,6.85
2018-02-16T07:57:14.264Z,6.74
2018-02-16T07:58:14.275Z,6.69
2018-02-16T07:59:14.291Z,6.75
2018-02-16T08:00:14.302Z,6.7
2018-02-16T08:01:14.317Z,6.66
2018-02-16T08:02:14.591Z,6.62
2018-02-16T08:03:14.350Z,6.6
2018-02-16T08:04:14.118Z,6.64
2018-02-16T08:05:14.629Z,6.66
2018-02-16T08:06:14.394Z,6.79
2018-02-16T08:07:14.661Z,6.74
2018-02-16T08:08:14.676Z,6.67
2018-02-16T08:09:14.438Z,6.77
2018-02-16T08:10:14.452Z,6.84
2018-02-16T08:11:14.479Z,6.69
2018-02-16T08:12:14.481Z,6.69
2018-02-16T08:13:14.522Z,6.7
2018-02-16T08:14:14.512Z,6.67
2018-02-16T08:15:14.776Z,6.64
2018-02-16T08:16:14.798Z,6.64
2018-02-16T08:17:14.812Z,6.63
2018-02-16T08:18:14.571Z,6.78
2018-02-16T08:19:14.593Z,6.87
2018-02-16T08:20:14.856Z,6.87
2018-02-16T08:21:14.622Z,6.82
2018-02-16T08:22:14.881Z,6.84
2018-02-16T08:23:14.919Z,6.85
2018-02-16T08:24:14.653Z,6.96
2018-02-16T08:25:29.592Z,6.89
2018-02-16T08:26:14.700Z,6.96
2018-02-16T08:27:14.706Z,6.96
2018-02-16T08:28:14.469Z,7.05
2018-02-16T08:29:14.482Z,6.96
2018-02-16T08:30:14.498Z,6.92
2018-02-16T08:31:14.804Z,6.74
2018-02-16T08:32:15.032Z,6.78
2018-02-16T08:33:14.796Z,6.77
2018-02-16T08:34:15.067Z,6.92
2018-02-16T08:35:14.572Z,7.03
2018-02-16T08:36:15.096Z,6.89
2018-02-16T08:37:14.603Z,6.7
2018-02-16T08:38:14.652Z,6.57
2018-02-16T08:39:14.891Z,6.52
2018-02-16T08:40:14.902Z,6.66
2018-02-16T08:41:14.911Z,6.77
2018-02-16T08:42:15.187Z,6.67
2018-02-16T08:43:15.204Z,6.77
2018-02-16T08:44:14.961Z,6.84
2018-02-16T08:45:14.975Z,6.87
2018-02-16T08:46:14.993Z,6.88
2018-02-16T08:47:15.257Z,6.85
2018-02-16T08:48:15.028Z,6.99
2018-02-16T08:49:15.298Z,6.89
2018-02-16T08:50:15.052Z,6.92
2018-02-16T08:51:15.062Z,6.95
2018-02-16T08:52:14.833Z,6.77
2018-02-16T08:53:15.354Z,6.7
2018-02-16T08:54:15.106Z,6.77
2018-02-16T08:55:14.872Z,6.78
2018-02-16T08:56:15.144Z,6.75
2018-02-16T08:57:15.155Z,6.88
2018-02-16T08:58:15.167Z,6.92
2018-02-16T08:59:15.183Z,6.82
2018-02-16T09:00:15.455Z,6.63
2018-02-16T09:01:15.214Z,6.54
2018-02-16T09:02:15.230Z,6.45
2018-02-16T09:03:15.242Z,6.45
2018-02-16T09:04:15.259Z,6.41
2018-02-16T09:05:15.267Z,6.35
2018-02-16T09:06:15.285Z,6.33
2018-02-16T09:07:15.552Z,6.33
2018-02-16T09:08:15.319Z,6.41
2018-02-16T09:09:15.335Z,6.52
2018-02-16T09:10:15.362Z,6.41
2018-02-16T09:11:15.620Z,6.24
2018-02-16T09:12:15.380Z,6.08
2018-02-16T09:13:15.163Z,6.02
2018-02-16T09:14:15.678Z,6.11
2018-02-16T09:15:15.422Z,5.91
2018-02-16T09:16:15.445Z,5.69
2018-02-16T09:17:15.475Z,5.61
2018-02-16T09:18:15.466Z,5.71
2018-02-16T09:19:15.736Z,5.75
2018-02-16T09:20:15.801Z,5.62
2018-02-16T09:21:15.260Z,5.69
2018-02-16T09:22:15.781Z,5.84
2018-02-16T09:23:15.794Z,5.86
2018-02-16T09:24:15.563Z,5.73
2018-02-16T09:25:15.589Z,5.8
2018-02-16T09:26:15.839Z,5.86
2018-02-16T09:27:15.627Z,5.86
2018-02-16T09:28:15.699Z,6.02
2018-02-16T09:29:15.456Z,6.2
2018-02-16T09:30:15.643Z,6.31
2018-02-16T09:31:15.664Z,6.33
2018-02-16T09:32:15.420Z,6.36
2018-02-16T09:33:15.946Z,6.39
2018-02-16T09:34:15.702Z,6.48
2018-02-16T09:35:15.463Z,6.54
2018-02-16T09:36:15.988Z,6.54
2018-02-16T09:37:15.745Z,6.56
2018-02-16T09:38:15.768Z,6.64
2018-02-16T09:39:15.782Z,6.77
2018-02-16T09:40:15.539Z,6.77
2018-02-16T09:41:16.062Z,6.67
2018-02-16T09:42:15.824Z,6.72
2018-02-16T09:43:15.856Z,6.69
2018-02-16T09:44:15.859Z,6.52
2018-02-16T09:45:15.870Z,6.52
2018-02-16T09:46:15.981Z,6.63
2018-02-16T09:47:16.152Z,6.7
2018-02-16T09:48:15.910Z,6.67
2018-02-16T09:49:16.183Z,6.79
2018-02-16T09:50:16.194Z,6.75
2018-02-16T09:51:15.971Z,6.59
2018-02-16T09:52:15.971Z,6.72
2018-02-16T09:53:15.985Z,6.81
2018-02-16T09:54:16.008Z,6.82
2018-02-16T09:55:16.022Z,6.95
2018-02-16T09:56:16.036Z,6.96
2018-02-16T09:57:16.050Z,6.79
2018-02-16T09:58:16.079Z,6.74
2018-02-16T09:59:16.075Z,6.64
2018-02-16T10:00:16.090Z,6.64
2018-02-16T10:01:16.363Z,6.75
2018-02-16T10:02:16.122Z,6.81
2018-02-16T10:03:15.885Z,6.7
2018-02-16T10:04:16.153Z,6.75
2018-02-16T10:05:16.422Z,6.77
2018-02-16T10:06:15.938Z,6.96
2018-02-16T10:07:16.535Z,7.13
2018-02-16T10:08:16.212Z,7.17
2018-02-16T10:09:15.982Z,7.14
2018-02-16T10:10:16.248Z,7.11
2018-02-16T10:11:16.255Z,7.03
2018-02-16T10:12:16.277Z,7.03
2018-02-16T10:13:16.316Z,7.13
2018-02-16T10:14:16.565Z,7.06
2018-02-16T10:15:16.580Z,6.96
2018-02-16T10:16:16.358Z,6.87
2018-02-16T10:17:16.612Z,6.74
2018-02-16T10:18:16.626Z,6.75
2018-02-16T10:19:16.386Z,6.82
2018-02-16T10:20:16.657Z,6.87
2018-02-16T10:21:16.178Z,6.96
2018-02-16T10:22:16.429Z,6.96
2018-02-16T10:23:16.442Z,6.99
2018-02-16T10:24:16.714Z,7.06
2018-02-16T10:25:16.733Z,6.89
2018-02-16T10:26:16.497Z,7
2018-02-16T10:27:16.512Z,7.13
2018-02-16T10:28:16.781Z,7.11
2018-02-16T10:29:16.790Z,7.24
2018-02-16T10:30:16.555Z,7.15
2018-02-16T10:31:16.567Z,7.2
2018-02-16T10:32:16.584Z,7.36
2018-02-16T10:33:16.853Z,7.4
2018-02-16T10:34:16.694Z,7.18
2018-02-16T10:35:16.636Z,7.11
2018-02-16T10:36:16.690Z,7.1
2018-02-16T10:37:16.916Z,7.05
2018-02-16T10:38:16.429Z,6.95
2018-02-16T10:39:16.945Z,6.95
2018-02-16T10:40:16.706Z,6.88
2018-02-16T10:41:16.980Z,6.88
2018-02-16T10:42:16.743Z,6.92
2018-02-16T10:43:16.762Z,6.95
2018-02-16T10:44:16.518Z,7.03
2018-02-16T10:45:16.792Z,7.15
2018-02-16T10:46:16.550Z,7.24
2018-02-16T10:47:16.565Z,7.35
2018-02-16T10:48:17.083Z,7.29
2018-02-16T10:49:17.102Z,7.38
2018-02-16T10:50:17.118Z,7.28
2018-02-16T10:51:16.873Z,7.24
2018-02-16T10:52:16.902Z,7.42
2018-02-16T10:53:17.157Z,7.24
2018-02-16T10:54:17.178Z,7.21
2018-02-16T10:55:16.940Z,7.42
2018-02-16T10:56:16.976Z,7.42
2018-02-16T10:57:16.976Z,7.54
2018-02-16T10:58:17.240Z,7.43
2018-02-16T10:59:17.015Z,7.42
2018-02-16T11:00:17.273Z,7.38
2018-02-16T11:01:17.037Z,7.18
2018-02-16T11:02:17.381Z,7.21
2018-02-16T11:03:17.320Z,7.36
2018-02-16T11:04:17.084Z,7.58
2018-02-16T11:05:17.094Z,7.45
2018-02-16T11:06:17.105Z,7.39
2018-02-16T11:07:17.377Z,7.29
2018-02-16T11:08:17.391Z,7.24
2018-02-16T11:09:17.409Z,7.31
2018-02-16T11:10:17.174Z,7.43
2018-02-16T11:11:17.199Z,7.47
2018-02-16T11:12:16.956Z,7.56
2018-02-16T11:13:17.221Z,7.57
2018-02-16T11:14:17.256Z,7.53
2018-02-16T11:15:17.260Z,7.35
2018-02-16T11:16:17.523Z,7.29
2018-02-16T11:17:17.036Z,7.42
2018-02-16T11:18:17.580Z,7.33
2018-02-16T11:19:17.319Z,7.25
2018-02-16T11:20:17.642Z,7.28
2018-02-16T11:21:17.354Z,7.36
2018-02-16T11:22:17.622Z,7.13
2018-02-16T11:23:17.132Z,7.2
2018-02-16T11:24:17.649Z,7.35
2018-02-16T11:25:17.167Z,7.47
2018-02-16T11:26:17.437Z,7.51
2018-02-16T11:27:17.696Z,7.58
2018-02-16T11:28:17.720Z,7.51
2018-02-16T11:29:17.731Z,7.53
2018-02-16T11:30:17.751Z,7.5
2018-02-16T11:31:17.761Z,7.56
2018-02-16T11:32:17.781Z,7.48
2018-02-16T11:33:17.558Z,7.57
2018-02-16T11:34:17.305Z,7.56
2018-02-16T11:35:17.575Z,7.66
2018-02-16T11:36:17.605Z,7.58
2018-02-16T11:37:17.608Z,7.5
2018-02-16T11:38:17.620Z,7.56
2018-02-16T11:39:17.888Z,7.42
2018-02-16T11:40:18.597Z,7.4
2018-02-16T11:41:17.924Z,7.33
2018-02-16T11:42:17.933Z,7.25
2018-02-16T11:43:17.719Z,7.38
2018-02-16T11:44:17.712Z,7.23
2018-02-16T11:45:17.994Z,7.39
2018-02-16T11:46:18.002Z,7.43
2018-02-16T11:47:17.514Z,7.33
2018-02-16T11:48:18.032Z,7.39
2018-02-16T11:49:18.043Z,7.48
2018-02-16T11:50:17.815Z,7.53
2018-02-16T11:51:17.835Z,7.56
2018-02-16T11:52:17.843Z,7.79
2018-02-16T11:53:17.860Z,7.76
2018-02-16T11:54:17.621Z,7.8
2018-02-16T11:55:18.161Z,7.91
2018-02-16T11:56:18.159Z,7.72
2018-02-16T11:57:18.177Z,7.7
2018-02-16T11:58:17.956Z,7.63
2018-02-16T11:59:18.201Z,7.54
2018-02-16T12:00:17.965Z,7.53
2018-02-16T12:01:18.242Z,7.42
2018-02-16T12:02:18.004Z,7.39
2018-02-16T12:03:18.020Z,7.45
2018-02-16T12:04:18.033Z,7.47
2018-02-16T12:05:18.320Z,7.47
2018-02-16T12:06:18.064Z,7.4
2018-02-16T12:07:18.333Z,7.42
2018-02-16T12:08:18.098Z,7.48
2018-02-16T12:09:18.107Z,7.42
2018-02-16T12:10:18.142Z,7.4
2018-02-16T12:11:18.395Z,7.32
2018-02-16T12:12:18.159Z,7.28
2018-02-16T12:13:17.920Z,7.05
2018-02-16T12:14:18.186Z,7.07
2018-02-16T12:15:18.490Z,7.11
2018-02-16T12:16:18.218Z,7.06
2018-02-16T12:17:18.256Z,7.14
2018-02-16T12:18:18.502Z,6.97
2018-02-16T12:19:18.268Z,7.1
2018-02-16T12:20:18.276Z,7.03
2018-02-16T12:21:18.296Z,7.23
2018-02-16T12:22:18.314Z,7.38
2018-02-16T12:23:18.580Z,7.48
2018-02-16T12:24:18.346Z,7.53
2018-02-16T12:25:18.360Z,7.56
2018-02-16T12:26:18.376Z,7.29
2018-02-16T12:27:18.389Z,7.13
2018-02-16T12:28:18.662Z,7.15
2018-02-16T12:29:18.420Z,7.15
2018-02-16T12:30:18.186Z,6.95
2018-02-16T12:31:18.467Z,6.82
2018-02-16T12:32:18.212Z,6.92
2018-02-16T12:33:18.733Z,6.84
2018-02-16T12:34:18.500Z,6.84
2018-02-16T12:35:18.534Z,6.93
2018-02-16T12:36:18.782Z,7.05
2018-02-16T12:37:18.542Z,7.11
2018-02-16T12:38:18.808Z,7.21
2018-02-16T12:39:18.587Z,7.07
2018-02-16T12:40:18.842Z,7.13
2018-02-16T12:41:18.353Z,7.14
2018-02-16T12:42:18.370Z,7.4
2018-02-16T12:43:18.894Z,7.38
2018-02-16T12:44:18.395Z,7.42
2018-02-16T12:45:18.669Z,7.48
2018-02-16T12:46:18.689Z,7.57
2018-02-16T12:47:18.468Z,7.47
2018-02-16T12:48:18.718Z,7.76
2018-02-16T12:49:18.733Z,7.8
2018-02-16T12:50:18.753Z,7.95
2018-02-16T12:51:18.548Z,7.97
2018-02-16T12:52:19.031Z,8.08
2018-02-16T12:53:18.798Z,8.08
2018-02-16T12:54:19.069Z,7.97
2018-02-16T12:55:18.583Z,8.06
2018-02-16T12:56:18.851Z,8.12
2018-02-16T12:57:19.119Z,8.1
2018-02-16T12:58:19.132Z,8.13
2018-02-16T12:59:18.639Z,8.24
2018-02-16T13:00:19.156Z,8.24
2018-02-16T13:01:19.182Z,8.18
2018-02-16T13:02:19.189Z,7.98
2018-02-16T13:03:18.699Z,7.8
2018-02-16T13:04:19.237Z,7.77
2018-02-16T13:05:18.985Z,7.88
2018-02-16T13:06:18.749Z,7.79
2018-02-16T13:07:19.020Z,7.79
2018-02-16T13:08:19.039Z,7.63
2018-02-16T13:09:19.075Z,7.72
2018-02-16T13:10:19.073Z,7.61
2018-02-16T13:11:19.340Z,7.42
2018-02-16T13:12:18.849Z,7.32
2018-02-16T13:13:19.387Z,7.36
2018-02-16T13:14:19.389Z,7.51
2018-02-16T13:15:19.405Z,7.63
2018-02-16T13:16:19.420Z,7.72
2018-02-16T13:17:19.438Z,7.85
2018-02-16T13:18:18.948Z,7.79
2018-02-16T13:19:19.474Z,7.88
2018-02-16T13:20:18.978Z,7.61